createdAt,value
2018-12-04T00:01:29.376Z,7.35
2018-12-04T00:03:57.611Z,6.90
2018-12-04T00:06:25.785Z,7.25
2018-12-04T00:08:53.926Z,7.38
2018-12-04T00:11:22.117Z,7.30
2018-12-04T00:13:50.413Z,7.27
2018-12-04T00:16:18.596Z,7.25
2018-12-04T00:18:46.835Z,7.38
2018-12-04T00:21:14.998Z,7.14
2018-12-04T00:23:43.194Z,7.26
2018-12-04T00:26:11.345Z,7.13
2018-12-04T00:28:39.689Z,7.11
2018-12-04T00:31:07.880Z,7.13
2018-12-04T00:33:36.053Z,7.10
2018-12-04T00:36:04.372Z,6.95
2018-12-04T00:38:32.514Z,7.22
2018-12-04T00:41:00.717Z,7.15
2018-12-04T00:43:28.849Z,7.08
2018-12-04T00:45:57.006Z,7.03
2018-12-04T00:48:25.316Z,7.01
2018-12-04T00:50:53.646Z,7.20
2018-12-04T00:53:21.876Z,6.97
2018-12-04T00:55:50.058Z,7.27
2018-12-04T00:58:18.258Z,7.17
2018-12-04T01:00:46.605Z,7.14
2018-12-04T01:03:14.753Z,7.17
2018-12-04T01:05:42.884Z,7.28
2018-12-04T01:08:11.099Z,7.06
2018-12-04T01:10:48.438Z,6.99
2018-12-04T01:13:16.652Z,7.00
2018-12-04T01:15:45.024Z,7.05
2018-12-04T01:18:13.230Z,7.08
2018-12-04T01:20:41.516Z,7.18
2018-12-04T01:23:09.871Z,7.21
2018-12-04T01:25:38.117Z,7.10
2018-12-04T01:28:06.315Z,7.02
2018-12-04T01:30:34.440Z,7.08
2018-12-04T01:33:02.718Z,7.01
2018-12-04T01:35:30.872Z,7.15
2018-12-04T01:37:59.078Z,7.06
2018-12-04T01:40:27.745Z,7.05
2018-12-04T01:42:55.969Z,7.18
2018-12-04T01:45:24.675Z,7.21
2018-12-04T01:47:52.818Z,7.15
2018-12-04T01:50:21.010Z,7.15
2018-12-04T01:52:49.249Z,7.27
2018-12-04T01:55:17.434Z,7.17
2018-12-04T01:57:45.552Z,7.03
2018-12-04T02:00:13.781Z,7.09
2018-12-04T02:02:42.025Z,7.20
2018-12-04T02:05:10.220Z,6.83
2018-12-04T02:07:38.428Z,7.16
2018-12-04T02:10:06.683Z,7.05
2018-12-04T02:12:34.956Z,6.93
2018-12-04T02:15:03.320Z,6.90
2018-12-04T02:17:31.520Z,6.83
2018-12-04T02:19:59.684Z,7.08
2018-12-04T02:22:27.894Z,6.99
2018-12-04T02:24:56.053Z,6.92
2018-12-04T02:27:24.354Z,6.77
2018-12-04T02:29:52.544Z,6.81
2018-12-04T02:32:20.712Z,6.64
2018-12-04T02:34:48.854Z,6.70
2018-12-04T02:37:16.971Z,6.70
2018-12-04T02:39:45.219Z,6.71
2018-12-04T02:42:13.364Z,6.77
2018-12-04T02:44:41.509Z,6.73
2018-12-04T02:47:09.615Z,6.61
2018-12-04T02:49:37.903Z,6.78
2018-12-04T02:52:06.103Z,6.45
2018-12-04T02:54:34.392Z,6.66
2018-12-04T02:57:02.590Z,6.66
2018-12-04T02:59:30.852Z,6.66
2018-12-04T03:01:59.180Z,6.34
2018-12-04T03:04:27.325Z,6.60
2018-12-04T03:06:55.513Z,6.60
2018-12-04T03:09:23.700Z,6.54
2018-12-04T03:11:51.984Z,6.66
2018-12-04T03:14:20.117Z,6.43
2018-12-04T03:16:48.288Z,6.41
2018-12-04T03:19:16.551Z,6.20
2018-12-04T03:21:44.664Z,6.34
2018-12-04T03:24:12.898Z,6.52
2018-12-04T03:26:41.213Z,6.31
2018-12-04T03:29:09.446Z,6.37
2018-12-04T03:31:37.713Z,6.17
2018-12-04T03:34:06.005Z,6.10
2018-12-04T03:36:34.232Z,6.30
2018-12-04T03:39:02.368Z,6.11
2018-12-04T03:41:30.528Z,6.16
2018-12-04T03:43:58.684Z,6.18
2018-12-04T03:46:26.960Z,6.08
2018-12-04T03:48:55.203Z,6.15
2018-12-04T03:51:23.495Z,6.25
2018-12-04T03:53:51.651Z,6.28
2018-12-04T03:56:19.829Z,6.20
2018-12-04T03:58:48.164Z,6.30
2018-12-04T04:01:16.404Z,5.95
2018-12-04T04:03:44.536Z,6.17
2018-12-04T04:06:12.662Z,6.30
2018-12-04T04:08:41.194Z,6.12
2018-12-04T04:11:09.330Z,5.97
2018-12-04T04:13:37.483Z,6.20
2018-12-04T04:16:05.792Z,6.29
2018-12-04T04:18:33.982Z,6.08
2018-12-04T04:21:02.256Z,6.05
2018-12-04T04:23:30.402Z,6.17
2018-12-04T04:25:58.777Z,6.09
2018-12-04T04:28:27.076Z,6.06
2018-12-04T04:30:55.277Z,6.08
2018-12-04T04:33:23.417Z,6.18
2018-12-04T04:35:51.629Z,6.26
2018-12-04T04:38:19.912Z,6.09
2018-12-04T04:40:48.041Z,5.79
2018-12-04T04:43:16.224Z,6.22
2018-12-04T04:45:44.373Z,6.06
2018-12-04T04:48:12.530Z,5.88
2018-12-04T04:50:40.742Z,5.75
2018-12-04T04:53:08.939Z,5.92
2018-12-04T04:55:37.156Z,5.79
2018-12-04T04:58:05.364Z,5.76
2018-12-04T05:00:33.582Z,5.78
2018-12-04T05:03:01.808Z,5.85
2018-12-04T05:05:34.252Z,5.80
2018-12-04T05:08:02.456Z,5.51
2018-12-04T05:10:30.614Z,5.38
2018-12-04T05:12:58.739Z,5.47
2018-12-04T05:15:27.265Z,5.50
2018-12-04T05:17:55.537Z,5.70
2018-12-04T05:20:23.825Z,5.73
2018-12-04T05:22:52.061Z,5.37
2018-12-04T05:25:20.285Z,5.84
2018-12-04T05:27:48.544Z,5.45
2018-12-04T05:30:16.767Z,5.81
2018-12-04T05:32:44.999Z,5.73
2018-12-04T05:35:13.215Z,5.72
2018-12-04T05:37:41.443Z,5.83
2018-12-04T05:40:09.655Z,5.76
2018-12-04T05:42:37.966Z,5.50
2018-12-04T05:45:07.002Z,5.36
2018-12-04T05:47:35.226Z,5.52
2018-12-04T05:50:03.644Z,5.32
2018-12-04T05:52:31.935Z,5.51
2018-12-04T05:55:00.176Z,5.40
2018-12-04T05:57:28.358Z,5.56
2018-12-04T05:59:56.542Z,5.35
2018-12-04T06:02:24.886Z,5.45
2018-12-04T06:04:53.072Z,5.41
2018-12-04T06:07:21.308Z,5.24
2018-12-04T06:09:49.638Z,5.46
2018-12-04T06:12:17.818Z,5.32
2018-12-04T06:14:46.075Z,5.13
2018-12-04T06:17:14.426Z,5.18
2018-12-04T06:19:42.637Z,5.01
2018-12-04T06:22:10.772Z,5.09
2018-12-04T06:24:38.980Z,5.05
2018-12-04T06:27:07.207Z,5.33
2018-12-04T06:29:35.381Z,5.12
2018-12-04T06:32:03.592Z,5.50
2018-12-04T06:34:31.743Z,5.47
2018-12-04T06:36:59.992Z,5.61
2018-12-04T06:39:28.232Z,5.42
2018-12-04T06:41:56.545Z,5.46
2018-12-04T06:44:24.669Z,5.62
2018-12-04T06:46:52.881Z,5.62
2018-12-04T06:49:21.114Z,5.63
2018-12-04T06:51:49.387Z,5.45
2018-12-04T06:54:17.605Z,5.70
2018-12-04T06:56:45.751Z,5.60
2018-12-04T06:59:13.957Z,5.48
2018-12-04T07:01:42.145Z,5.43
2018-12-04T07:04:10.384Z,5.74
2018-12-04T07:06:38.564Z,5.52
2018-12-04T07:09:07.927Z,5.61
2018-12-04T07:11:36.114Z,5.56
2018-12-04T07:14:04.428Z,5.55
2018-12-04T07:16:32.630Z,5.56
2018-12-04T07:19:00.892Z,5.28
2018-12-04T07:21:29.136Z,5.43
2018-12-04T07:23:57.296Z,5.59
2018-12-04T07:26:25.519Z,5.18
2018-12-04T07:28:53.664Z,5.24
2018-12-04T07:31:21.911Z,5.53
2018-12-04T07:33:50.150Z,5.41
2018-12-04T07:36:18.453Z,5.45
2018-12-04T07:38:46.671Z,5.46
2018-12-04T07:41:14.820Z,5.38
2018-12-04T07:43:43.036Z,5.30
2018-12-04T07:46:11.367Z,5.22
2018-12-04T07:48:39.503Z,5.41
2018-12-04T07:51:07.734Z,5.03
2018-12-04T07:53:35.924Z,5.39
2018-12-04T07:56:04.088Z,5.11
2018-12-04T07:58:32.247Z,4.89
2018-12-04T08:01:00.391Z,5.11
2018-12-04T08:03:28.530Z,4.93
2018-12-04T08:05:56.824Z,5.29
2018-12-04T08:08:25.455Z,5.24
2018-12-04T08:10:53.600Z,5.20
2018-12-04T08:13:21.884Z,5.19
2018-12-04T08:15:50.037Z,5.21
2018-12-04T08:18:18.216Z,5.22
2018-12-04T08:20:46.482Z,5.26
2018-12-04T08:23:14.613Z,5.44
2018-12-04T08:25:42.739Z,5.12
2018-12-04T08:28:10.982Z,5.23
2018-12-04T08:30:39.089Z,5.36
2018-12-04T08:33:07.260Z,5.29
2018-12-04T08:35:35.413Z,5.35
2018-12-04T08:38:03.636Z,5.44
2018-12-04T08:40:31.828Z,5.47
2018-12-04T08:43:00.037Z,5.58
2018-12-04T08:45:28.277Z,5.56
2018-12-04T08:47:59.370Z,5.56
2018-12-04T08:50:27.592Z,5.56
2018-12-04T08:52:55.810Z,5.68
2018-12-04T08:55:24.009Z,5.68
2018-12-04T08:57:52.152Z,5.70
2018-12-04T09:00:20.472Z,5.35
2018-12-04T09:02:48.756Z,5.81
2018-12-04T09:05:17.041Z,5.67
2018-12-04T09:07:45.404Z,5.85
2018-12-04T09:10:13.695Z,5.74
2018-12-04T09:12:41.824Z,5.79
2018-12-04T09:15:10.109Z,5.98
2018-12-04T09:17:38.227Z,6.03
2018-12-04T09:20:07.810Z,6.10
2018-12-04T09:22:36.025Z,6.15
2018-12-04T09:25:04.721Z,6.06
2018-12-04T09:27:33.164Z,6.07
2018-12-04T09:30:01.423Z,5.98
2018-12-04T09:32:29.637Z,5.90
2018-12-04T09:34:57.751Z,5.99
2018-12-04T09:37:25.967Z,6.21
2018-12-04T09:39:54.270Z,5.90
2018-12-04T09:42:22.532Z,6.15
2018-12-04T09:44:50.660Z,6.14
2018-12-04T09:47:19.200Z,6.02
2018-12-04T09:49:47.495Z,6.10
2018-12-04T09:52:15.761Z,6.15
2018-12-04T09:54:44.025Z,6.27
2018-12-04T09:57:12.175Z,6.34
2018-12-04T09:59:40.318Z,6.48
2018-12-04T10:02:08.433Z,6.59
2018-12-04T10:04:36.577Z,6.52
2018-12-04T10:07:04.895Z,6.53
2018-12-04T10:09:33.023Z,6.54
2018-12-04T10:12:01.190Z,6.49
2018-12-04T10:14:29.424Z,6.43
2018-12-04T10:16:57.548Z,6.41
2018-12-04T10:19:25.811Z,6.35
2018-12-04T10:21:53.964Z,6.41
2018-12-04T10:24:22.097Z,6.40
2018-12-04T10:26:55.507Z,6.41
2018-12-04T10:29:23.791Z,6.37
2018-12-04T10:31:55.945Z,6.35
2018-12-04T10:34:22.160Z,6.37
2018-12-04T10:36:50.364Z,6.41
2018-12-04T10:39:18.605Z,6.47
2018-12-04T10:41:46.936Z,6.40
2018-12-04T10:44:15.064Z,6.46
2018-12-04T10:46:43.288Z,6.37
2018-12-04T10:49:11.538Z,6.41
2018-12-04T10:51:39.732Z,6.38
2018-12-04T10:54:08.024Z,6.34
2018-12-04T10:56:36.210Z,6.44
2018-12-04T10:59:04.408Z,6.48
2018-12-04T11:01:37.900Z,6.35
2018-12-04T11:04:06.181Z,6.38
2018-12-04T11:06:34.372Z,6.42
2018-12-04T11:09:02.639Z,6.28
2018-12-04T11:11:30.781Z,6.30
2018-12-04T11:13:58.923Z,6.37
2018-12-04T11:16:27.220Z,6.32
2018-12-04T11:18:55.508Z,6.30
2018-12-04T11:21:23.749Z,6.34
2018-12-04T11:23:51.888Z,6.29
2018-12-04T11:26:20.041Z,6.40
2018-12-04T11:28:54.788Z,6.16
2018-12-04T11:31:23.009Z,6.24
2018-12-04T11:33:51.140Z,6.43
2018-12-04T11:36:19.736Z,6.42
2018-12-04T11:38:47.900Z,6.54
2018-12-04T11:41:16.011Z,6.63
2018-12-04T11:43:44.131Z,6.56
2018-12-04T11:46:12.449Z,6.66
2018-12-04T11:48:40.701Z,6.81
2018-12-04T11:51:08.908Z,6.69
2018-12-04T11:53:37.036Z,6.79
2018-12-04T11:56:05.315Z,6.75
2018-12-04T11:58:33.513Z,6.82
2018-12-04T12:01:01.875Z,6.86
2018-12-04T12:03:29.985Z,6.87
2018-12-04T12:05:58.149Z,6.70
2018-12-04T12:08:26.301Z,6.83
2018-12-04T12:10:54.519Z,6.94
2018-12-04T12:13:22.683Z,6.87
2018-12-04T12:15:50.906Z,6.98
2018-12-04T12:18:19.041Z,7.00
2018-12-04T12:20:47.237Z,6.89
2018-12-04T12:23:15.454Z,7.04
2018-12-04T12:25:44.685Z,6.95
2018-12-04T12:28:12.984Z,6.88
2018-12-04T12:30:41.273Z,6.94
2018-12-04T12:33:09.386Z,7.02
2018-12-04T12:35:37.525Z,6.98
2018-12-04T12:38:05.709Z,7.06
2018-12-04T12:40:33.865Z,7.12
2018-12-04T12:43:02.149Z,7.04
2018-12-04T12:45:30.485Z,6.95
2018-12-04T12:47:58.642Z,6.90
2018-12-04T12:50:26.756Z,6.96
2018-12-04T12:52:55.568Z,6.94
2018-12-04T12:55:23.709Z,7.06
2018-12-04T12:57:52.100Z,6.87
2018-12-04T13:00:20.572Z,7.06
2018-12-04T13:02:48.730Z,6.99
2018-12-04T13:05:16.981Z,7.07
2018-12-04T13:07:45.115Z,6.98
2018-12-04T13:10:13.347Z,7.15
2018-12-04T13:12:41.604Z,7.08
2018-12-04T13:15:09.779Z,7.18
2018-12-04T13:17:37.924Z,7.15
2018-12-04T13:20:07.063Z,7.15
2018-12-04T13:22:35.278Z,7.17
2018-12-04T13:25:03.478Z,7.23
2018-12-04T13:27:31.735Z,7.14
2018-12-04T13:29:59.978Z,7.12
2018-12-04T13:32:28.121Z,7.14
2018-12-04T13:34:56.341Z,7.11
2018-12-04T13:37:24.632Z,7.06
2018-12-04T13:39:53.821Z,7.10
2018-12-04T13:42:22.006Z,7.14
2018-12-04T13:44:50.267Z,7.02
2018-12-04T13:47:18.483Z,7.05
2018-12-04T13:49:46.691Z,6.98
2018-12-04T13:52:14.828Z,6.98
2018-12-04T13:54:43.012Z,6.89
2018-12-04T13:57:11.287Z,6.97
2018-12-04T13:59:39.504Z,6.93
2018-12-04T14:02:07.917Z,6.95
2018-12-04T14:04:36.314Z,6.92
2018-12-04T14:07:05.141Z,6.78
2018-12-04T14:09:33.339Z,6.79
2018-12-04T14:12:01.569Z,6.81
2018-12-04T14:14:29.828Z,6.80
2018-12-04T14:16:58.133Z,6.73
2018-12-04T14:19:26.276Z,6.69
2018-12-04T14:21:54.432Z,6.66
2018-12-04T14:24:22.605Z,6.59
2018-12-04T14:26:51.045Z,6.59
2018-12-04T14:29:19.202Z,6.59
2018-12-04T14:31:47.431Z,6.57
2018-12-04T14:34:15.618Z,6.53
2018-12-04T14:36:43.842Z,6.49
2018-12-04T14:39:12.143Z,6.47
2018-12-04T14:41:40.344Z,6.34
2018-12-04T14:44:08.609Z,6.26
2018-12-04T14:46:42.227Z,6.37
2018-12-04T14:49:10.384Z,6.32
2018-12-04T14:51:38.732Z,6.26
2018-12-04T14:54:07.056Z,6.11
2018-12-04T14:56:35.266Z,6.08
2018-12-04T14:59:03.625Z,6.17
2018-12-04T15:01:32.025Z,6.29
2018-12-04T15:04:00.246Z,6.22
2018-12-04T15:06:28.455Z,6.11
2018-12-04T15:09:02.981Z,6.22
2018-12-04T15:11:31.229Z,5.96
2018-12-04T15:13:59.493Z,6.12
2018-12-04T15:16:27.881Z,5.95
2018-12-04T15:18:56.100Z,6.00
2018-12-04T15:21:24.448Z,5.90
2018-12-04T15:23:52.874Z,5.84
2018-12-04T15:26:21.004Z,5.76
2018-12-04T15:28:49.138Z,5.93
2018-12-04T15:31:17.356Z,5.83
2018-12-04T15:33:45.597Z,5.83
2018-12-04T15:36:13.863Z,5.83
2018-12-04T15:38:42.060Z,5.50
2018-12-04T15:41:10.336Z,5.87
2018-12-04T15:43:38.568Z,5.85
2018-12-04T15:46:06.777Z,5.75
2018-12-04T15:48:34.971Z,5.67
2018-12-04T15:51:03.269Z,5.75
2018-12-04T15:53:31.607Z,5.61
2018-12-04T15:55:59.925Z,5.81
2018-12-04T15:58:28.155Z,5.66
2018-12-04T16:00:56.284Z,5.36
2018-12-04T16:03:24.424Z,5.63
2018-12-04T16:05:52.577Z,5.49
2018-12-04T16:08:20.902Z,5.33
2018-12-04T16:10:49.034Z,5.39
2018-12-04T16:13:17.246Z,5.61
2018-12-04T16:15:45.463Z,5.46
2018-12-04T16:18:13.638Z,5.39
2018-12-04T16:20:41.794Z,5.26
2018-12-04T16:23:10.024Z,5.38
2018-12-04T16:28:28.333Z,5.20
2018-12-04T16:30:56.458Z,5.21
2018-12-04T16:33:24.682Z,5.31
2018-12-04T16:35:52.809Z,5.36
2018-12-04T16:38:20.948Z,5.25
2018-12-04T16:40:49.243Z,4.93
2018-12-04T16:43:17.493Z,5.16
2018-12-04T16:45:45.705Z,5.14
2018-12-04T16:48:13.836Z,5.01
2018-12-04T16:50:42.079Z,4.92
2018-12-04T16:53:10.417Z,5.15
2018-12-04T16:55:38.645Z,5.04
2018-12-04T16:58:06.936Z,4.89
2018-12-04T17:00:35.086Z,5.05
2018-12-04T17:03:03.400Z,4.81
2018-12-04T17:05:31.581Z,4.58
2018-12-04T17:07:59.852Z,4.74
2018-12-04T17:10:28.005Z,4.60
2018-12-04T17:12:56.401Z,4.78
2018-12-04T17:15:24.799Z,4.95
2018-12-04T17:17:53.035Z,4.96
2018-12-04T17:20:21.571Z,5.22
2018-12-04T17:22:49.951Z,4.87
2018-12-04T17:25:18.085Z,4.96
2018-12-04T17:27:46.309Z,4.95
2018-12-04T17:30:14.749Z,4.90
2018-12-04T17:32:43.284Z,4.95
2018-12-04T17:35:11.775Z,4.88
2018-12-04T17:37:40.117Z,4.87
2018-12-04T17:40:08.722Z,4.97
2018-12-04T17:42:36.859Z,5.09
2018-12-04T17:45:05.700Z,4.79
2018-12-04T17:47:33.871Z,4.71
2018-12-04T17:50:02.088Z,4.79
2018-12-04T17:52:30.478Z,4.78
2018-12-04T17:54:58.764Z,4.48
2018-12-04T17:57:27.336Z,4.73
2018-12-04T17:59:55.662Z,4.74
2018-12-04T18:02:23.861Z,4.55
2018-12-04T18:04:52.209Z,4.78
2018-12-04T18:07:21.038Z,4.74
2018-12-04T18:09:49.369Z,4.57
2018-12-04T18:12:17.551Z,4.66
2018-12-04T18:14:45.695Z,4.68
2018-12-04T18:17:13.927Z,4.56
2018-12-04T18:19:42.151Z,4.50
2018-12-04T18:22:10.320Z,4.32
2018-12-04T18:24:38.529Z,4.43
2018-12-04T18:27:06.652Z,4.35
2018-12-04T18:29:36.270Z,4.13
2018-12-04T18:32:04.548Z,4.25
2018-12-04T18:34:32.839Z,4.28
2018-12-04T18:37:01.165Z,4.48
2018-12-04T18:39:29.508Z,4.44
2018-12-04T18:41:57.640Z,4.26
2018-12-04T18:44:25.986Z,4.30
2018-12-04T18:46:54.285Z,4.29
2018-12-04T18:49:22.546Z,4.41
2018-12-04T18:51:50.861Z,4.27
2018-12-04T18:54:19.088Z,4.30
2018-12-04T18:56:47.357Z,4.10
2018-12-04T18:59:15.676Z,4.34
2018-12-04T19:01:43.921Z,4.39
2018-12-04T19:04:12.138Z,4.19
2018-12-04T19:06:40.433Z,4.15
2018-12-04T19:09:09.025Z,4.22
2018-12-04T19:11:38.836Z,4.41
2018-12-04T19:14:07.274Z,4.40
2018-12-04T19:16:35.460Z,4.37
2018-12-04T19:19:03.759Z,4.21
2018-12-04T19:27:15.653Z,4.21
2018-12-04T19:29:43.831Z,4.09
2018-12-04T19:32:12.113Z,4.04
2018-12-04T19:34:40.437Z,4.28
2018-12-04T19:37:08.654Z,4.08
2018-12-04T19:39:36.869Z,3.86
2018-12-04T19:42:05.119Z,4.15
2018-12-04T19:44:35.139Z,3.81
2018-12-04T19:47:03.700Z,3.92
2018-12-04T19:49:33.131Z,3.87
2018-12-04T19:52:01.314Z,4.30
2018-12-04T19:54:29.940Z,4.09
2018-12-04T19:56:58.605Z,3.83
2018-12-04T19:59:26.989Z,3.93
2018-12-04T20:01:55.541Z,4.24
2018-12-04T20:05:49.227Z,4.03
2018-12-04T20:08:17.541Z,3.97
2018-12-04T20:10:45.773Z,3.93
2018-12-04T20:13:14.054Z,4.01
2018-12-04T20:15:42.257Z,3.85
2018-12-04T20:18:10.780Z,4.07
2018-12-04T20:20:38.998Z,4.37
2018-12-04T20:23:07.157Z,4.29
2018-12-04T20:25:35.409Z,4.21
2018-12-04T20:28:10.110Z,3.90
2018-12-04T20:30:38.361Z,4.00
2018-12-04T20:33:06.604Z,4.24
2018-12-04T20:35:34.863Z,3.86
2018-12-04T20:38:03.210Z,4.00
2018-12-04T20:40:31.992Z,4.34
2018-12-04T20:43:00.456Z,4.07
2018-12-04T20:45:28.662Z,4.18
2018-12-04T20:47:56.847Z,4.02
2018-12-04T20:50:25.227Z,4.13
2018-12-04T20:52:53.572Z,4.12
2018-12-04T20:55:21.735Z,4.01
2018-12-04T20:57:50.102Z,4.27
2018-12-04T21:00:18.388Z,4.11
2018-12-04T21:02:46.559Z,4.17
2018-12-04T21:05:14.784Z,4.20
2018-12-04T21:07:43.038Z,3.96
2018-12-04T21:10:11.212Z,4.00
2018-12-04T21:12:39.491Z,4.18
2018-12-04T21:15:07.835Z,4.12
2018-12-04T21:17:36.011Z,3.85
2018-12-04T21:20:04.517Z,4.16
2018-12-04T21:22:32.825Z,4.19
2018-12-04T21:25:01.004Z,3.97
2018-12-04T21:27:34.627Z,3.94
2018-12-04T21:30:08.448Z,4.22
2018-12-04T21:32:41.991Z,3.83
2018-12-04T21:35:15.739Z,4.06
2018-12-04T21:37:49.229Z,4.15
2018-12-04T21:40:22.999Z,3.86
2018-12-04T21:42:56.598Z,3.86
2018-12-04T21:45:30.165Z,4.04
2018-12-04T21:48:02.711Z,3.86
2018-12-04T21:50:31.004Z,3.90
2018-12-04T21:52:59.209Z,3.96
2018-12-04T21:55:27.592Z,3.82
2018-12-04T21:57:55.750Z,3.69
2018-12-04T22:00:24.064Z,3.78
2018-12-04T22:02:52.349Z,3.92
2018-12-04T22:05:20.648Z,3.88
2018-12-04T22:07:48.831Z,4.04
2018-12-04T22:10:17.206Z,3.85
2018-12-04T22:12:45.630Z,3.88
2018-12-04T22:15:13.976Z,4.09
2018-12-04T22:17:42.153Z,4.00
2018-12-04T22:20:10.160Z,4.08
2018-12-04T22:22:38.481Z,4.19
2018-12-04T22:25:06.758Z,3.98
2018-12-04T22:27:34.984Z,4.11
2018-12-04T22:30:03.532Z,3.96
2018-12-04T22:32:31.751Z,3.81
2018-12-04T22:34:59.938Z,3.91
2018-12-04T22:37:28.075Z,4.01
2018-12-04T22:39:56.250Z,3.99
2018-12-04T22:42:24.510Z,4.17
2018-12-04T22:44:54.804Z,4.11
2018-12-04T22:47:23.078Z,3.82
2018-12-04T22:49:51.288Z,3.52
2018-12-04T22:52:19.557Z,3.54
2018-12-04T22:55:03.476Z,3.49
2018-12-04T22:57:39.794Z,3.42
2018-12-04T23:00:26.547Z,3.38
2018-12-04T23:02:55.721Z,3.39
2018-12-04T23:05:24.110Z,3.44
2018-12-04T23:07:52.360Z,3.50
2018-12-04T23:10:20.542Z,3.77
2018-12-04T23:12:48.733Z,3.67
2018-12-04T23:15:16.976Z,3.87
2018-12-04T23:17:45.224Z,3.88
2018-12-04T23:20:13.570Z,3.92
2018-12-04T23:22:41.758Z,3.83
2018-12-04T23:25:10.197Z,3.91
2018-12-04T23:27:38.414Z,3.99
2018-12-04T23:30:06.851Z,3.98
2018-12-04T23:32:35.002Z,3.94
2018-12-04T23:35:03.399Z,4.07
2018-12-04T23:37:31.699Z,3.90
2018-12-04T23:40:00.001Z,4.06
2018-12-04T23:42:28.141Z,4.18
2018-12-04T23:44:56.485Z,3.96
2018-12-04T23:47:24.865Z,3.94
2018-12-04T23:49:53.131Z,3.63
2018-12-04T23:52:21.298Z,3.91
2018-12-04T23:54:49.480Z,3.72
2018-12-04T23:57:17.619Z,3.68
2018-12-04T23:59:45.850Z,3.84
